Observation data for Muleshoe on 01/11/2018      Previous  Date  Next       Current Mesonet Observations  Soil Data  Daily Summary Page  Observations in Plain Language
KMUS 110600Z 26020G27KT 09/M02 A2954 RMK A01 T00861017  RH  049%=      5-min Rain = 0
KMUS 110605Z 26020G27KT 09/M02 A2955 RMK A01 T00851017  RH  049%=      5-min Rain = 0
KMUS 110610Z 26020G27KT 08/M02 A2955 RMK A01 T00841017  RH  050%=      5-min Rain = 0
KMUS 110615Z 26020G29KT 08/M02 A2955 RMK A01 T00841016  RH  050%=      5-min Rain = 0
KMUS 110620Z 26021G27KT 08/M02 A2955 RMK A01 T00831015  RH  050%=      5-min Rain = 0
KMUS 110625Z 26021G29KT 08/M01 A2955 RMK A01 T00821014  RH  051%=      5-min Rain = 0
KMUS 110630Z 26022G28KT 08/M01 A2955 RMK A01 T00821013  RH  052%=      5-min Rain = 0
KMUS 110635Z 26021G29KT 08/M01 A2955 RMK A01 T00821011  RH  052%=      5-min Rain = 0
KMUS 110640Z 26020G26KT 08/M01 A2956 RMK A01 T00811009  RH  053%=      5-min Rain = 0
KMUS 110645Z 27017G25KT 08/M01 A2957 RMK A01 T00801007  RH  054%=      5-min Rain = 0
KMUS 110650Z 27018G25KT 08/M01 A2957 RMK A01 T00801005  RH  056%=      5-min Rain = 0
KMUS 110655Z 27020G25KT 08/M00 A2957 RMK A01 T00821002  RH  056%=      5-min Rain = 0
KMUS 110700Z 27017G22KT 08/00 A2957 RMK A01 T008100-0  RH  057%=      5-min Rain = 0
KMUS 110705Z 27020G27KT 08/00 A2958 RMK A01 T00810001  RH  058%=      5-min Rain = 0
KMUS 110710Z 27019G29KT 08/00 A2958 RMK A01 T00810002  RH  058%=      5-min Rain = 0
KMUS 110715Z 26019G24KT 08/00 A2958 RMK A01 T00800003  RH  059%=      5-min Rain = 0
KMUS 110720Z 27019G27KT 08/00 A2959 RMK A01 T00790003  RH  059%=      5-min Rain = 0
KMUS 110725Z 27016G24KT 08/00 A2959 RMK A01 T00780003  RH  060%=      5-min Rain = 0
KMUS 110730Z 27016G23KT 08/00 A296 RMK A01 T00760003  RH  060%=      5-min Rain = 0
KMUS 110735Z 27017G23KT 08/00 A296 RMK A01 T00760003  RH  060%=      5-min Rain = 0
KMUS 110740Z 28016G24KT 08/00 A2961 RMK A01 T00750003  RH  061%=      5-min Rain = 0
KMUS 110745Z 27017G24KT 07/00 A2962 RMK A01 T00740003  RH  061%=      5-min Rain = 0
KMUS 110750Z 29012G18KT 07/00 A2963 RMK A01 T00720002  RH  062%=      5-min Rain = 0
KMUS 110755Z 29015G23KT 07/00 A2963 RMK A01 T00710003  RH  062%=      5-min Rain = 0
KMUS 110800Z 30012KT 07/00 A2964 RMK A01 T00730003  RH  062%=      5-min Rain = 0
KMUS 110805Z 30010G16KT 08/00 A2965 RMK A01 T00750002  RH  061%=      5-min Rain = 0
KMUS 110810Z 29011KT 08/00 A2965 RMK A01 T00770002  RH  060%=      5-min Rain = 0
KMUS 110815Z 30011KT 08/00 A2966 RMK A01 T00790001  RH  058%=      5-min Rain = 0
KMUS 110820Z 30011KT 08/00 A2966 RMK A01 T00830001  RH  057%=      5-min Rain = 0
KMUS 110825Z 31012G17KT 09/00 A2967 RMK A01 T00870004  RH  057%=      5-min Rain = 0
KMUS 110830Z 31009KT 09/01 A2967 RMK A01 T00900006  RH  057%=      5-min Rain = 0
KMUS 110835Z 34011G18KT 09/02 A2968 RMK A01 T00910015  RH  060%=      5-min Rain = 0
KMUS 110840Z 36012KT 09/03 A2968 RMK A01 T00940026  RH  064%=      5-min Rain = 0
KMUS 110845Z 36015G28KT 10/03 A2969 RMK A01 T00950031  RH  066%=      5-min Rain = 0
KMUS 110850Z 36019G27KT 09/03 A2969 RMK A01 T00940032  RH  067%=      5-min Rain = 0
KMUS 110855Z 00019G24KT 09/03 A297 RMK A01 T00920033  RH  068%=      5-min Rain = 0
KMUS 110900Z 36017G25KT 09/03 A297 RMK A01 T00900033  RH  068%=      5-min Rain = 0
KMUS 110905Z 36018G26KT 09/03 A2971 RMK A01 T00890033  RH  070%=      5-min Rain = 0
KMUS 110910Z 00020G27KT 09/03 A2971 RMK A01 T00860034  RH  071%=      5-min Rain = 0
KMUS 110915Z 36020G30KT 08/03 A2972 RMK A01 T00840031  RH  071%=      5-min Rain = 0
KMUS 110920Z 36023G31KT 08/03 A2972 RMK A01 T00820026  RH  069%=      5-min Rain = 0
KMUS 110925Z 00021G29KT 08/03 A2972 RMK A01 T00790025  RH  070%=      5-min Rain = 0
KMUS 110930Z 36020G28KT 08/02 A2973 RMK A01 T00780024  RH  070%=      5-min Rain = 0
KMUS 110935Z 00017G23KT 08/03 A2973 RMK A01 T00760025  RH  071%=      5-min Rain = 0
KMUS 110940Z 00016G22KT 07/02 A2974 RMK A01 T00740024  RH  072%=      5-min Rain = 0
KMUS 110945Z 00018G26KT 07/02 A2974 RMK A01 T00730022  RH  072%=      5-min Rain = 0
KMUS 110950Z 01016G22KT 07/02 A2974 RMK A01 T00710021  RH  071%=      5-min Rain = 0
KMUS 110955Z 36017G24KT 07/02 A2974 RMK A01 T00700021  RH  072%=      5-min Rain = 0
KMUS 111000Z 36017G23KT 07/02 A2975 RMK A01 T00690019  RH  071%=      5-min Rain = 0
KMUS 111005Z 36018G25KT 07/01 A2975 RMK A01 T00680014  RH  069%=      5-min Rain = 0
KMUS 111010Z 36020G31KT 07/01 A2975 RMK A01 T00660009  RH  068%=      5-min Rain = 0
KMUS 111015Z 36019G28KT 06/01 A2976 RMK A01 T00640007  RH  068%=      5-min Rain = 0
KMUS 111020Z 36021G28KT 06/01 A2976 RMK A01 T00630006  RH  068%=      5-min Rain = 0
KMUS 111025Z 00021G28KT 06/01 A2977 RMK A01 T00620005  RH  068%=      5-min Rain = 0
KMUS 111030Z 36019G29KT 06/01 A2977 RMK A01 T00610005  RH  069%=      5-min Rain = 0
KMUS 111035Z 35019G27KT 06/01 A2977 RMK A01 T00600007  RH  070%=      5-min Rain = 0
KMUS 111040Z 35020G29KT 06/01 A2977 RMK A01 T00590006  RH  070%=      5-min Rain = 0
KMUS 111045Z 35020G27KT 06/01 A2977 RMK A01 T00580005  RH  070%=      5-min Rain = 0
KMUS 111050Z 36020G30KT 06/00 A2977 RMK A01 T00570004  RH  070%=      5-min Rain = 0
KMUS 111055Z 35019G26KT 06/00 A2978 RMK A01 T00560004  RH  070%=      5-min Rain = 0
KMUS 111100Z 35020G27KT 06/00 A2978 RMK A01 T00550004  RH  071%=      5-min Rain = 0
KMUS 111105Z 35021G27KT 05/00 A2979 RMK A01 T00540003  RH  071%=      5-min Rain = 0
KMUS 111110Z 35020G28KT 05/00 A2979 RMK A01 T00510001  RH  071%=      5-min Rain = 0
KMUS 111115Z 34021G30KT 05/M00 A2979 RMK A01 T00501001  RH  071%=      5-min Rain = 0
KMUS 111120Z 34020G27KT 05/M00 A298 RMK A01 T00491001  RH  071%=      5-min Rain = 0
KMUS 111125Z 34020G31KT 05/M00 A298 RMK A01 T00481001  RH  071%=      5-min Rain = 0
KMUS 111130Z 35024G32KT 05/M00 A2981 RMK A01 T00451002  RH  073%=      5-min Rain = 0
KMUS 111135Z 35023G32KT 04/M01 A2981 RMK A01 T00431005  RH  072%=      5-min Rain = 0
KMUS 111140Z 35022G32KT 04/M01 A2982 RMK A01 T00421008  RH  070%=      5-min Rain = 0
KMUS 111145Z 35020G30KT 04/M01 A2983 RMK A01 T00421011  RH  069%=      5-min Rain = 0
KMUS 111150Z 35019G29KT 04/M01 A2983 RMK A01 T00411012  RH  069%=      5-min Rain = 0
KMUS 111155Z 34016G26KT 04/M01 A2984 RMK A01 T00401010  RH  070%=      5-min Rain = 0
KMUS 111200Z 34016G24KT 04/M01 A2984 RMK A01 T00401008  RH  072%=      5-min Rain = 0
KMUS 111205Z 34021G28KT 04/M01 A2985 RMK A01 T00391005  RH  074%=      5-min Rain = 0
KMUS 111210Z 34019G30KT 04/M01 A2986 RMK A01 T00371005  RH  075%=      5-min Rain = 0
KMUS 111215Z 34016G23KT 04/M01 A2986 RMK A01 T00361007  RH  074%=      5-min Rain = 0
KMUS 111220Z 35018G30KT 04/M01 A2987 RMK A01 T00361012  RH  072%=      5-min Rain = 0
KMUS 111225Z 35020G29KT 04/M02 A2988 RMK A01 T00351023  RH  066%=      5-min Rain = 0
KMUS 111230Z 35021G30KT 04/M03 A2988 RMK A01 T00351027  RH  065%=      5-min Rain = 0
KMUS 111235Z 35020G30KT 03/M03 A2989 RMK A01 T00341028  RH  064%=      5-min Rain = 0
KMUS 111240Z 35019G27KT 03/M03 A2989 RMK A01 T00331029  RH  064%=      5-min Rain = 0
KMUS 111245Z 36019G27KT 03/M03 A299 RMK A01 T00321030  RH  064%=      5-min Rain = 0
KMUS 111250Z 36018G24KT 03/M03 A2991 RMK A01 T00311029  RH  065%=      5-min Rain = 0
KMUS 111255Z 35016G23KT 03/M03 A2991 RMK A01 T00291032  RH  065%=      5-min Rain = 0
KMUS 111300Z 35015G21KT 03/M04 A2991 RMK A01 T00271036  RH  063%=      5-min Rain = 0
KMUS 111305Z 35015G21KT 03/M04 A2992 RMK A01 T00261038  RH  063%=      5-min Rain = 0
KMUS 111310Z 35015G21KT 02/M04 A2992 RMK A01 T00241040  RH  063%=      5-min Rain = 0
KMUS 111315Z 36017G26KT 02/M04 A2992 RMK A01 T00221043  RH  063%=      5-min Rain = 0
KMUS 111320Z 35015G22KT 02/M04 A2993 RMK A01 T00201044  RH  063%=      5-min Rain = 0
KMUS 111325Z 35017G23KT 02/M04 A2993 RMK A01 T00191044  RH  063%=      5-min Rain = 0
KMUS 111330Z 36018G24KT 02/M04 A2993 RMK A01 T00181044  RH  064%=      5-min Rain = 0
KMUS 111335Z 36017G23KT 02/M04 A2994 RMK A01 T00161044  RH  065%=      5-min Rain = 0
KMUS 111340Z 35019G30KT 01/M05 A2994 RMK A01 T00141045  RH  065%=      5-min Rain = 0
KMUS 111345Z 34020G27KT 01/M06 A2995 RMK A01 T00111055  RH  062%=      5-min Rain = 0
KMUS 111350Z 35022G31KT 01/M06 A2995 RMK A01 T00081058  RH  061%=      5-min Rain = 0
KMUS 111355Z 36022G34KT 01/M06 A2996 RMK A01 T00051061  RH  061%=      5-min Rain = 0
KMUS 111400Z 36021G29KT 01/M06 A2996 RMK A01 T00051062  RH  061%=      5-min Rain = 0
KMUS 111405Z 36021G32KT 00/M06 A2996 RMK A01 T00041063  RH  061%=      5-min Rain = 0
KMUS 111410Z 00022G28KT 00/M06 A2997 RMK A01 T00031064  RH  061%=      5-min Rain = 0
KMUS 111415Z 00021G26KT 00/M06 A2997 RMK A01 T00031064  RH  061%=      5-min Rain = 0
KMUS 111420Z 36019G30KT 00/M07 A2998 RMK A01 T00021065  RH  061%=      5-min Rain = 0
KMUS 111425Z 36019G26KT 00/M07 A2999 RMK A01 T00011065  RH  061%=      5-min Rain = 0
KMUS 111430Z 36018G28KT 00/M07 A2999 RMK A01 T00011066  RH  061%=      5-min Rain = 0
KMUS 111435Z 00017G24KT 00/07 A2999 RMK A01 T00-00-66  RH  061%=      5-min Rain = 0
KMUS 111440Z 36016G23KT 00/07 A30 RMK A01 T00-00-66  RH  061%=      5-min Rain = 0
KMUS 111445Z 36018G27KT 00/M07 A30 RMK A01 T00011066  RH  061%=      5-min Rain = 0
KMUS 111450Z 36016G24KT 00/M07 A3001 RMK A01 T00031066  RH  060%=      5-min Rain = 0
KMUS 111455Z 36019G26KT 01/M07 A3001 RMK A01 T00051066  RH  059%=      5-min Rain = 0
KMUS 111500Z 36020G28KT 01/M07 A3002 RMK A01 T00061066  RH  058%=      5-min Rain = 0
KMUS 111505Z 36021G29KT 01/M07 A3003 RMK A01 T00081067  RH  058%=      5-min Rain = 0
KMUS 111510Z 35018G26KT 01/M07 A3003 RMK A01 T00091067  RH  057%=      5-min Rain = 0
KMUS 111515Z 35020G34KT 01/M07 A3004 RMK A01 T00111067  RH  056%=      5-min Rain = 0
KMUS 111520Z 35020G29KT 01/M07 A3004 RMK A01 T00131067  RH  055%=      5-min Rain = 0
KMUS 111525Z 00022G31KT 01/M07 A3005 RMK A01 T00141069  RH  054%=      5-min Rain = 0
KMUS 111530Z 36020G31KT 02/M07 A3005 RMK A01 T00161069  RH  053%=      5-min Rain = 0
KMUS 111535Z 36025G32KT 02/M07 A3005 RMK A01 T00161070  RH  053%=      5-min Rain = 0
KMUS 111540Z 35021G31KT 02/M07 A3006 RMK A01 T00171070  RH  052%=      5-min Rain = 0
KMUS 111545Z 36021G29KT 02/M07 A3006 RMK A01 T00181071  RH  052%=      5-min Rain = 0
KMUS 111550Z 00025G32KT 02/M07 A3007 RMK A01 T00191073  RH  050%=      5-min Rain = 0
KMUS 111555Z 00026G33KT 02/M08 A3007 RMK A01 T00181075  RH  050%=      5-min Rain = 0
KMUS 111600Z 00025G34KT 02/M08 A3007 RMK A01 T00191076  RH  049%=      5-min Rain = 0
KMUS 111605Z 00024G33KT 02/M08 A3008 RMK A01 T00211076  RH  048%=      5-min Rain = 0
KMUS 111610Z 00019G28KT 03/M08 A3008 RMK A01 T00251076  RH  047%=      5-min Rain = 0
KMUS 111615Z 00022G33KT 03/M08 A3009 RMK A01 T00261076  RH  047%=      5-min Rain = 0
KMUS 111620Z 00021G28KT 03/M08 A3009 RMK A01 T00281077  RH  046%=      5-min Rain = 0
KMUS 111625Z 00023G31KT 03/M08 A301 RMK A01 T00281079  RH  045%=      5-min Rain = 0
KMUS 111630Z 01025G34KT 03/M08 A3011 RMK A01 T00271080  RH  045%=      5-min Rain = 0
KMUS 111635Z 01020G29KT 03/M08 A3012 RMK A01 T00291080  RH  044%=      5-min Rain = 0
KMUS 111640Z 01020G27KT 03/M08 A3012 RMK A01 T00331081  RH  043%=      5-min Rain = 0
KMUS 111645Z 36024G33KT 03/M08 A3013 RMK A01 T00321083  RH  043%=      5-min Rain = 0
KMUS 111650Z 01021G28KT 03/M08 A3013 RMK A01 T00321084  RH  042%=      5-min Rain = 0
KMUS 111655Z 01019G29KT 03/M08 A3013 RMK A01 T00341083  RH  042%=      5-min Rain = 0
KMUS 111700Z 01018G27KT 04/M08 A3014 RMK A01 T00361082  RH  042%=      5-min Rain = 0
KMUS 111705Z 01020G29KT 04/M08 A3014 RMK A01 T00391083  RH  040%=      5-min Rain = 0
KMUS 111710Z 36022G30KT 04/M08 A3015 RMK A01 T00401083  RH  040%=      5-min Rain = 0
KMUS 111715Z 01018G27KT 04/M09 A3015 RMK A01 T00431085  RH  039%=      5-min Rain = 0
KMUS 111720Z 01021G31KT 04/M09 A3015 RMK A01 T00441086  RH  038%=      5-min Rain = 0
KMUS 111725Z 01022G29KT 04/M09 A3016 RMK A01 T00441088  RH  038%=      5-min Rain = 0
KMUS 111730Z 00019G26KT 05/M09 A3016 RMK A01 T00471087  RH  037%=      5-min Rain = 0
KMUS 111735Z 36018G25KT 05/M09 A3016 RMK A01 T00511086  RH  036%=      5-min Rain = 0
KMUS 111740Z 00021G29KT 05/M09 A3017 RMK A01 T00491087  RH  037%=      5-min Rain = 0
KMUS 111745Z 00019G26KT 05/M09 A3017 RMK A01 T00521088  RH  036%=      5-min Rain = 0
KMUS 111750Z 36022G28KT 05/M09 A3017 RMK A01 T00521088  RH  036%=      5-min Rain = 0
KMUS 111755Z 36019G26KT 05/M09 A3017 RMK A01 T00541086  RH  035%=      5-min Rain = 0
KMUS 111800Z 35020G26KT 06/M09 A3017 RMK A01 T00571090  RH  034%=      5-min Rain = 0
KMUS 111805Z 36021G28KT 05/M09 A3017 RMK A01 T00541088  RH  035%=      5-min Rain = 0
KMUS 111810Z 36019G24KT 06/M09 A3018 RMK A01 T00561089  RH  034%=      5-min Rain = 0
KMUS 111815Z 35017G23KT 06/M09 A3018 RMK A01 T00591088  RH  034%=      5-min Rain = 0
KMUS 111820Z 35021G26KT 06/M09 A3018 RMK A01 T00611091  RH  033%=      5-min Rain = 0
KMUS 111825Z 36017G26KT 06/M09 A3018 RMK A01 T00591091  RH  033%=      5-min Rain = 0
KMUS 111830Z 35016KT 06/M09 A3018 RMK A01 T00621090  RH  033%=      5-min Rain = 0
KMUS 111835Z 36016G25KT 06/M09 A3018 RMK A01 T00641089  RH  032%=      5-min Rain = 0
KMUS 111840Z 34016G24KT 07/M09 A3018 RMK A01 T00661088  RH  032%=      5-min Rain = 0
KMUS 111845Z 35017G22KT 07/M09 A3017 RMK A01 T00651088  RH  032%=      5-min Rain = 0
KMUS 111850Z 35016G21KT 07/M09 A3017 RMK A01 T00681088  RH  032%=      5-min Rain = 0
KMUS 111855Z 00016G23KT 07/M09 A3017 RMK A01 T00661088  RH  032%=      5-min Rain = 0
KMUS 111900Z 00017G25KT 07/M09 A3016 RMK A01 T00681090  RH  031%=      5-min Rain = 0
KMUS 111905Z 01017G24KT 07/M09 A3016 RMK A01 T00711089  RH  031%=      5-min Rain = 0
KMUS 111910Z 35015G23KT 07/M09 A3017 RMK A01 T00711089  RH  031%=      5-min Rain = 0
KMUS 111915Z 00016G23KT 07/M09 A3017 RMK A01 T00741090  RH  030%=      5-min Rain = 0
KMUS 111920Z 36019G25KT 08/M09 A3017 RMK A01 T00751092  RH  030%=      5-min Rain = 0
KMUS 111925Z 01017G24KT 08/M09 A3017 RMK A01 T00771091  RH  029%=      5-min Rain = 0
KMUS 111930Z 01019G26KT 08/M09 A3016 RMK A01 T00801093  RH  028%=      5-min Rain = 0
KMUS 111935Z 01018G27KT 08/M09 A3016 RMK A01 T00791093  RH  028%=      5-min Rain = 0
KMUS 111940Z 36021G28KT 08/M10 A3016 RMK A01 T00821095  RH  027%=      5-min Rain = 0
KMUS 111945Z 35020G29KT 08/M10 A3016 RMK A01 T00801095  RH  028%=      5-min Rain = 0
KMUS 111950Z 00021G29KT 08/M10 A3016 RMK A01 T00801096  RH  028%=      5-min Rain = 0
KMUS 111955Z 36021G29KT 08/M10 A3016 RMK A01 T00791097  RH  027%=      5-min Rain = 0
KMUS 112000Z 36019G26KT 08/M10 A3016 RMK A01 T00811097  RH  027%=      5-min Rain = 0
KMUS 112005Z 01018G27KT 08/M10 A3016 RMK A01 T00841098  RH  026%=      5-min Rain = 0
KMUS 112010Z 00020G28KT 08/M10 A3016 RMK A01 T00831101  RH  026%=      5-min Rain = 0
KMUS 112015Z 01021G29KT 08/M10 A3016 RMK A01 T00821102  RH  026%=      5-min Rain = 0
KMUS 112020Z 01015G22KT 08/M10 A3016 RMK A01 T00831100  RH  026%=      5-min Rain = 0
KMUS 112025Z 01019G26KT 08/M10 A3016 RMK A01 T00841101  RH  026%=      5-min Rain = 0
KMUS 112030Z 01018G23KT 08/M10 A3017 RMK A01 T00821101  RH  026%=      5-min Rain = 0
KMUS 112035Z 35020G28KT 08/M10 A3017 RMK A01 T00821100  RH  026%=      5-min Rain = 0
KMUS 112040Z 36017G25KT 08/M10 A3017 RMK A01 T00841100  RH  026%=      5-min Rain = 0
KMUS 112045Z 36019G27KT 08/M10 A3017 RMK A01 T00841100  RH  026%=      5-min Rain = 0
KMUS 112050Z 01019G26KT 08/M10 A3017 RMK A01 T00821101  RH  026%=      5-min Rain = 0
KMUS 112055Z 01014G19KT 09/M10 A3017 RMK A01 T00871099  RH  026%=      5-min Rain = 0
KMUS 112100Z 35020G28KT 09/M10 A3017 RMK A01 T00881103  RH  025%=      5-min Rain = 0
KMUS 112105Z 35018G23KT 09/M10 A3018 RMK A01 T00861103  RH  025%=      5-min Rain = 0
KMUS 112110Z 01016G22KT 09/M10 A3018 RMK A01 T00851102  RH  025%=      5-min Rain = 0
KMUS 112115Z 00017G24KT 09/M10 A3018 RMK A01 T00881101  RH  025%=      5-min Rain = 0
KMUS 112120Z 00013G18KT 09/M10 A3018 RMK A01 T00891101  RH  025%=      5-min Rain = 0
KMUS 112125Z 35016G22KT 09/M10 A3018 RMK A01 T00901103  RH  024%=      5-min Rain = 0
KMUS 112130Z 00017G24KT 09/M10 A3018 RMK A01 T00861104  RH  025%=      5-min Rain = 0
KMUS 112135Z 36015G21KT 09/M10 A3018 RMK A01 T00871103  RH  025%=      5-min Rain = 0
KMUS 112140Z 01014G20KT 09/M10 A3018 RMK A01 T00871103  RH  025%=      5-min Rain = 0
KMUS 112145Z 00016G22KT 09/M10 A3018 RMK A01 T00881103  RH  025%=      5-min Rain = 0
KMUS 112150Z 00015G24KT 09/M10 A3018 RMK A01 T00871104  RH  025%=      5-min Rain = 0
KMUS 112155Z 36017G24KT 09/M10 A3018 RMK A01 T00851104  RH  025%=      5-min Rain = 0
KMUS 112200Z 01015G22KT 08/M10 A3019 RMK A01 T00841104  RH  025%=      5-min Rain = 0
KMUS 112205Z 01015G20KT 08/M10 A3019 RMK A01 T00841104  RH  025%=      5-min Rain = 0
KMUS 112210Z 01013G19KT 08/M10 A3019 RMK A01 T00841103  RH  025%=      5-min Rain = 0
KMUS 112215Z 35014G20KT 09/M10 A3019 RMK A01 T00851104  RH  025%=      5-min Rain = 0
KMUS 112220Z 36014KT 08/M10 A302 RMK A01 T00831104  RH  025%=      5-min Rain = 0
KMUS 112225Z 35014G20KT 08/M10 A302 RMK A01 T00831104  RH  025%=      5-min Rain = 0
KMUS 112230Z 35014KT 08/M11 A3021 RMK A01 T00821105  RH  025%=      5-min Rain = 0
KMUS 112235Z 01013G18KT 08/M11 A3021 RMK A01 T00811105  RH  025%=      5-min Rain = 0
KMUS 112240Z 01015KT 08/M10 A3021 RMK A01 T00791104  RH  026%=      5-min Rain = 0
KMUS 112245Z 01015G20KT 08/M10 A3021 RMK A01 T00781104  RH  026%=      5-min Rain = 0
KMUS 112250Z 00012G18KT 08/M10 A3022 RMK A01 T00781104  RH  026%=      5-min Rain = 0
KMUS 112255Z 35011G17KT 08/M10 A3022 RMK A01 T00771104  RH  026%=      5-min Rain = 0
KMUS 112300Z 00009KT 08/M10 A3022 RMK A01 T00771104  RH  026%=      5-min Rain = 0
KMUS 112305Z 36011KT 08/M10 A3023 RMK A01 T00761103  RH  027%=      5-min Rain = 0
KMUS 112310Z 00009KT 08/M10 A3023 RMK A01 T00751103  RH  027%=      5-min Rain = 0
KMUS 112315Z 01011G17KT 07/M10 A3023 RMK A01 T00741103  RH  027%=      5-min Rain = 0
KMUS 112320Z 35011KT 07/M10 A3023 RMK A01 T00721104  RH  027%=      5-min Rain = 0
KMUS 112325Z 00010KT 07/M10 A3023 RMK A01 T00701104  RH  028%=      5-min Rain = 0
KMUS 112330Z 00009KT 07/M10 A3023 RMK A01 T00691104  RH  028%=      5-min Rain = 0
KMUS 112335Z 00010KT 07/M11 A3023 RMK A01 T00671105  RH  028%=      5-min Rain = 0
KMUS 112340Z 01008G13KT 06/M11 A3023 RMK A01 T00641106  RH  028%=      5-min Rain = 0
KMUS 112345Z 00009KT 06/M11 A3023 RMK A01 T00621106  RH  029%=      5-min Rain = 0
KMUS 112350Z 01007KT 06/M11 A3023 RMK A01 T00591107  RH  029%=      5-min Rain = 0
KMUS 112355Z 02008KT 06/M11 A3023 RMK A01 T00561107  RH  030%=      5-min Rain = 0
KMUS 120000Z 02007KT 05/M11 A3023 RMK A01 T00521107  RH  031%=      5-min Rain = 0
KMUS 120005Z 02007KT 05/M11 A3024 RMK A01 T00481107  RH  031%=      5-min Rain = 0
KMUS 120010Z 02007KT 04/M11 A3024 RMK A01 T00441107  RH  032%=      5-min Rain = 0
KMUS 120015Z 02006KT 04/M11 A3024 RMK A01 T00401108  RH  033%=      5-min Rain = 0
KMUS 120020Z 03005KT 04/M11 A3024 RMK A01 T00361108  RH  034%=      5-min Rain = 0
KMUS 120025Z 03005KT 03/M11 A3024 RMK A01 T00331108  RH  035%=      5-min Rain = 0
KMUS 120030Z 03004KT 03/M11 A3024 RMK A01 T00301108  RH  035%=      5-min Rain = 0
KMUS 120035Z 03004KT 03/M11 A3024 RMK A01 T00271108  RH  036%=      5-min Rain = 0
KMUS 120040Z 03005KT 02/M11 A3024 RMK A01 T00231108  RH  037%=      5-min Rain = 0
KMUS 120045Z 03005KT 02/M11 A3024 RMK A01 T00191111  RH  037%=      5-min Rain = 0
KMUS 120050Z 04004KT 01/M11 A3024 RMK A01 T00121114  RH  038%=      5-min Rain = 0
KMUS 120055Z 04002KT 01/M11 A3025 RMK A01 T00061111  RH  041%=      5-min Rain = 0
KMUS 120100Z 04002KT 00/M11 A3025 RMK A01 T00021114  RH  041%=      5-min Rain = 0
KMUS 120105Z 04002KT M00/M12 A3025 RMK A01 T10021116  RH  042%=      5-min Rain = 0
KMUS 120110Z 07001KT M01/M12 A3025 RMK A01 T10091120  RH  043%=      5-min Rain = 0
KMUS 120115Z 09002KT M01/M13 A3025 RMK A01 T10121130  RH  040%=      5-min Rain = 0
KMUS 120120Z 09002KT M02/M14 A3025 RMK A01 T10191138  RH  040%=      5-min Rain = 0
KMUS 120125Z 08003KT M03/M13 A3025 RMK A01 T10281134  RH  044%=      5-min Rain = 0
KMUS 120130Z 07003KT M03/M13 A3025 RMK A01 T10321127  RH  048%=      5-min Rain = 0
KMUS 120135Z 08003KT M04/M13 A3025 RMK A01 T10361125  RH  050%=      5-min Rain = 0
KMUS 120140Z 10003KT M04/M12 A3025 RMK A01 T10381122  RH  052%=      5-min Rain = 0
KMUS 120145Z 11004KT M04/M12 A3025 RMK A01 T10391122  RH  052%=      5-min Rain = 0
KMUS 120150Z 11004KT M04/M12 A3025 RMK A01 T10391117  RH  054%=      5-min Rain = 0
KMUS 120155Z 10004KT M04/M11 A3025 RMK A01 T10361114  RH  055%=      5-min Rain = 0
KMUS 120200Z 09003KT M04/M12 A3025 RMK A01 T10361117  RH  053%=      5-min Rain = 0
KMUS 120205Z 09003KT M04/M12 A3025 RMK A01 T10381123  RH  051%=      5-min Rain = 0
KMUS 120210Z 11003KT M04/M12 A3025 RMK A01 T10431122  RH  054%=      5-min Rain = 0
KMUS 120215Z 13004KT M04/M12 A3025 RMK A01 T10431120  RH  055%=      5-min Rain = 0
KMUS 120220Z 13004KT M04/M12 A3025 RMK A01 T10441124  RH  053%=      5-min Rain = 0
KMUS 120225Z 13003KT M05/M12 A3026 RMK A01 T10471123  RH  055%=      5-min Rain = 0
KMUS 120230Z 13003KT M05/M12 A3025 RMK A01 T10491121  RH  057%=      5-min Rain = 0
KMUS 120235Z 11003KT M05/M12 A3025 RMK A01 T10471115  RH  059%=      5-min Rain = 0
KMUS 120240Z 14003KT M05/M12 A3025 RMK A01 T10481124  RH  055%=      5-min Rain = 0
KMUS 120245Z 15004KT M05/M12 A3025 RMK A01 T10511122  RH  057%=      5-min Rain = 0
KMUS 120250Z 13004KT M05/M12 A3025 RMK A01 T10531123  RH  057%=      5-min Rain = 0
KMUS 120255Z 13003KT M06/M12 A3025 RMK A01 T10551122  RH  059%=      5-min Rain = 0
KMUS 120300Z 13003KT M06/M12 A3025 RMK A01 T10561120  RH  060%=      5-min Rain = 0
KMUS 120305Z 14003KT M06/M12 A3025 RMK A01 T10561120  RH  060%=      5-min Rain = 0
KMUS 120310Z 13003KT M06/M12 A3025 RMK A01 T10571123  RH  060%=      5-min Rain = 0
KMUS 120315Z 12003KT M06/M13 A3025 RMK A01 T10601128  RH  059%=      5-min Rain = 0
KMUS 120320Z 13002KT M06/M12 A3025 RMK A01 T10621122  RH  062%=      5-min Rain = 0
KMUS 120325Z 12002KT M06/M12 A3025 RMK A01 T10621117  RH  065%=      5-min Rain = 0
KMUS 120330Z 11002KT M06/M11 A3025 RMK A01 T10611113  RH  066%=      5-min Rain = 0
KMUS 120335Z 11002KT M06/M12 A3025 RMK A01 T10601117  RH  063%=      5-min Rain = 0
KMUS 120340Z 10001KT M06/M12 A3025 RMK A01 T10641124  RH  062%=      5-min Rain = 0
KMUS 120345Z 04000KT M07/M13 A3025 RMK A01 T10701128  RH  063%=      5-min Rain = 0
KMUS 120350Z 31001KT M07/M13 A3026 RMK A01 T10691127  RH  063%=      5-min Rain = 0
KMUS 120355Z 27000KT M07/M13 A3026 RMK A01 T10741134  RH  062%=      5-min Rain = 0
KMUS 120400Z 30001KT M08/M13 A3026 RMK A01 T10761132  RH  064%=      5-min Rain = 0
KMUS 120405Z 30002KT M07/M13 A3026 RMK A01 T10741129  RH  065%=      5-min Rain = 0
KMUS 120410Z 30002KT M07/M13 A3026 RMK A01 T10721126  RH  065%=      5-min Rain = 0
KMUS 120415Z 30002KT M07/M13 A3026 RMK A01 T10721127  RH  064%=      5-min Rain = 0
KMUS 120420Z 29002KT M07/M13 A3027 RMK A01 T10731130  RH  063%=      5-min Rain = 0
KMUS 120425Z 27002KT M08/M13 A3026 RMK A01 T10771133  RH  063%=      5-min Rain = 0
KMUS 120430Z 27002KT M08/M14 A3026 RMK A01 T10781135  RH  063%=      5-min Rain = 0
KMUS 120435Z 27002KT M08/M14 A3026 RMK A01 T10811136  RH  064%=      5-min Rain = 0
KMUS 120440Z 26002KT M08/M14 A3027 RMK A01 T10811135  RH  065%=      5-min Rain = 0
KMUS 120445Z 26001KT M08/M14 A3027 RMK A01 T10831137  RH  065%=      5-min Rain = 0
KMUS 120450Z 26002KT M08/M14 A3027 RMK A01 T10841139  RH  064%=      5-min Rain = 0
KMUS 120455Z 26001KT M09/M14 A3027 RMK A01 T10871144  RH  063%=      5-min Rain = 0
KMUS 120500Z 26001KT M09/M14 A3027 RMK A01 T10891143  RH  064%=      5-min Rain = 0
KMUS 120505Z 26001KT M09/M14 A3027 RMK A01 T10901144  RH  064%=      5-min Rain = 0
KMUS 120510Z 26000KT M09/M14 A3027 RMK A01 T10911143  RH  065%=      5-min Rain = 0
KMUS 120515Z 26001KT M09/M14 A3027 RMK A01 T10921142  RH  066%=      5-min Rain = 0
KMUS 120520Z 26002KT M09/M14 A3027 RMK A01 T10901138  RH  067%=      5-min Rain = 0
KMUS 120525Z 26001KT M09/M14 A3027 RMK A01 T10901140  RH  066%=      5-min Rain = 0
KMUS 120530Z 25001KT M09/M14 A3026 RMK A01 T10921144  RH  065%=      5-min Rain = 0
KMUS 120535Z 25001KT M09/M15 A3026 RMK A01 T10941149  RH  063%=      5-min Rain = 0
KMUS 120540Z 25001KT M10/M15 A3026 RMK A01 T10961150  RH  064%=      5-min Rain = 0
KMUS 120545Z 25001KT M10/M15 A3026 RMK A01 T10971150  RH  065%=      5-min Rain = 0
KMUS 120550Z 25002KT M10/M15 A3026 RMK A01 T10961146  RH  066%=      5-min Rain = 0
KMUS 120555Z 25002KT M09/M14 A3026 RMK A01 T10931141  RH  067%=      5-min Rain = 0

Page generated in 0.0106 seconds.